AFR106 LFPG-LFML
Flight info
| Callsign | AFR106 |
|---|---|
| Flight time | N/A |
| Altitude | 32000 |
| Route | LATRA DCT LAMUT DCT UTUVA DCT LERGA |
| Aircraft | A359/H-SDE2E3GHIJ3J4J5LM1ORWXY/LB1D1 |
Departure
| Time | 2026-05-04 14:17 |
|---|---|
| Airport | Charles de Gaulle International Airport (LFPG) |
Arrival
| Time | N/A |
|---|---|
| Airport | Marseille Provence Airport (LFML) |
| Time | Latitude | Longitude | Altitude | Speed | Heading |
|---|---|---|---|---|---|
| 2026-05-04 13:19 | 49.00136 | 2.57625 | 361 ft | 0 kts | 356° |
| 2026-05-04 13:54 | 49.00131 | 2.57625 | 367 ft | 2 kts | 353° |
| 2026-05-04 13:54 | 49.00095 | 2.57645 | 363 ft | 3 kts | 321° |
| 2026-05-04 13:55 | 49.00080 | 2.57666 | 365 ft | 3 kts | 307° |
| 2026-05-04 13:55 | 49.00063 | 2.57720 | 367 ft | 3 kts | 276° |
| 2026-05-04 13:55 | 49.00062 | 2.57736 | 366 ft | 0 kts | 265° |
| 2026-05-04 14:03 | 49.00062 | 2.57735 | 361 ft | 0 kts | 265° |
| 2026-05-04 14:03 | 49.00061 | 2.57728 | 361 ft | 2 kts | 266° |
| 2026-05-04 14:03 | 49.00061 | 2.57722 | 361 ft | 0 kts | 266° |
| 2026-05-04 14:06 | 49.00058 | 2.57659 | 367 ft | 12 kts | 265° |
| 2026-05-04 14:07 | 49.00047 | 2.57489 | 366 ft | 18 kts | 264° |
| 2026-05-04 14:07 | 49.00030 | 2.57319 | 367 ft | 11 kts | 239° |
| 2026-05-04 14:07 | 48.99981 | 2.57269 | 369 ft | 9 kts | 220° |
| 2026-05-04 14:07 | 48.99950 | 2.57142 | 369 ft | 17 kts | 265° |
| 2026-05-04 14:08 | 48.99936 | 2.56907 | 362 ft | 27 kts | 265° |
| 2026-05-04 14:08 | 48.99922 | 2.56640 | 365 ft | 26 kts | 265° |
| 2026-05-04 14:08 | 48.99905 | 2.56316 | 364 ft | 34 kts | 266° |
| 2026-05-04 14:08 | 48.99893 | 2.56078 | 360 ft | 11 kts | 265° |
| 2026-05-04 14:09 | 48.99940 | 2.55725 | 367 ft | 23 kts | 309° |
| 2026-05-04 14:09 | 49.00028 | 2.55619 | 368 ft | 8 kts | 291° |
| 2026-05-04 14:10 | 49.00167 | 2.55454 | 363 ft | 19 kts | 343° |
| 2026-05-04 14:10 | 49.00313 | 2.55388 | 368 ft | 18 kts | 344° |
| 2026-05-04 14:10 | 49.00433 | 2.55335 | 367 ft | 21 kts | 344° |
| 2026-05-04 14:10 | 49.00595 | 2.55266 | 366 ft | 27 kts | 344° |
| 2026-05-04 14:11 | 49.00787 | 2.55181 | 365 ft | 32 kts | 344° |
| 2026-05-04 14:11 | 49.01155 | 2.55022 | 365 ft | 0 kts | 344° |
| 2026-05-04 14:11 | 49.01170 | 2.55015 | 369 ft | 6 kts | 344° |
| 2026-05-04 14:12 | 49.01271 | 2.54972 | 364 ft | 27 kts | 344° |
| 2026-05-04 14:12 | 49.01505 | 2.54898 | 368 ft | 36 kts | 354° |
| 2026-05-04 14:12 | 49.01835 | 2.54839 | 369 ft | 7 kts | 317° |
| 2026-05-04 14:13 | 49.01840 | 2.54721 | 362 ft | 24 kts | 266° |
| 2026-05-04 14:13 | 49.01822 | 2.54345 | 368 ft | 40 kts | 265° |
| 2026-05-04 14:13 | 49.01799 | 2.53922 | 364 ft | 40 kts | 265° |
| 2026-05-04 14:13 | 49.01775 | 2.53492 | 369 ft | 41 kts | 265° |
| 2026-05-04 14:14 | 49.01751 | 2.53054 | 364 ft | 42 kts | 265° |
| 2026-05-04 14:14 | 49.01707 | 2.52225 | 363 ft | 39 kts | 265° |
| 2026-05-04 14:14 | 49.01687 | 2.51859 | 368 ft | 23 kts | 265° |
| 2026-05-04 14:15 | 49.01667 | 2.51332 | 362 ft | 11 kts | 291° |
| 2026-05-04 14:15 | 49.01835 | 2.51257 | 368 ft | 17 kts | 354° |
| 2026-05-04 14:16 | 49.02078 | 2.51589 | 365 ft | 38 kts | 85° |
| 2026-05-04 14:16 | 49.02121 | 2.52379 | 364 ft | 127 kts | 85° |
| 2026-05-04 14:17 | 49.02329 | 2.56148 | 2097 ft | 201 kts | 82° |
| 2026-05-04 14:17 | 49.02475 | 2.58347 | 3422 ft | 212 kts | 82° |
| 2026-05-04 14:17 | 49.02795 | 2.62948 | 5718 ft | 221 kts | 81° |
| 2026-05-04 14:18 | 49.02961 | 2.65407 | 6063 ft | 246 kts | 84° |
| 2026-05-04 14:18 | 49.03230 | 2.70998 | 7526 ft | 273 kts | 85° |
| 2026-05-04 14:19 | 49.03540 | 2.76868 | 9916 ft | 284 kts | 84° |
| 2026-05-04 14:19 | 49.03693 | 2.79947 | 10730 ft | 301 kts | 85° |
| 2026-05-04 14:19 | 49.03855 | 2.83225 | 11487 ft | 318 kts | 85° |
| 2026-05-04 14:19 | 49.04025 | 2.86586 | 12466 ft | 327 kts | 84° |
| 2026-05-04 14:20 | 49.04195 | 2.90070 | 13493 ft | 333 kts | 86° |
| 2026-05-04 14:20 | 49.04017 | 2.93599 | 14321 ft | 337 kts | 103° |
| 2026-05-04 14:20 | 49.03058 | 2.96863 | 15126 ft | 342 kts | 124° |
| 2026-05-04 14:21 | 48.99145 | 3.00798 | 16780 ft | 348 kts | 167° |
| 2026-05-04 14:21 | 48.96726 | 3.01148 | 17717 ft | 350 kts | 177° |
| 2026-05-04 14:21 | 48.94275 | 3.01209 | 18558 ft | 355 kts | 179° |
| 2026-05-04 14:21 | 48.91806 | 3.00824 | 19306 ft | 359 kts | 191° |
| 2026-05-04 14:22 | 48.89476 | 2.99609 | 20133 ft | 361 kts | 204° |
| 2026-05-04 14:22 | 48.87369 | 2.97527 | 21033 ft | 363 kts | 218° |
| 2026-05-04 14:22 | 48.85652 | 2.94694 | 21961 ft | 368 kts | 232° |
| 2026-05-04 14:22 | 48.84294 | 2.91383 | 22938 ft | 372 kts | 237° |
| 2026-05-04 14:23 | 48.81699 | 2.84493 | 24511 ft | 380 kts | 237° |
| 2026-05-04 14:23 | 48.80378 | 2.81007 | 25255 ft | 383 kts | 236° |
| 2026-05-04 14:23 | 48.79038 | 2.77492 | 25963 ft | 386 kts | 236° |
| 2026-05-04 14:24 | 48.77685 | 2.73959 | 26682 ft | 389 kts | 236° |
| 2026-05-04 14:24 | 48.76317 | 2.70400 | 27399 ft | 393 kts | 236° |
| 2026-05-04 14:24 | 48.74935 | 2.66811 | 28078 ft | 396 kts | 236° |
| 2026-05-04 14:24 | 48.73525 | 2.63276 | 28757 ft | 398 kts | 232° |
| 2026-05-04 14:25 | 48.71819 | 2.59988 | 29441 ft | 398 kts | 223° |
| 2026-05-04 14:25 | 48.67393 | 2.54966 | 30426 ft | 402 kts | 208° |
| 2026-05-04 14:25 | 48.64968 | 2.52825 | 30831 ft | 407 kts | 207° |
| 2026-05-04 14:26 | 48.62489 | 2.50648 | 30957 ft | 418 kts | 207° |
| 2026-05-04 14:26 | 48.59932 | 2.48394 | 30968 ft | 433 kts | 208° |
| 2026-05-04 14:26 | 48.57292 | 2.46056 | 30965 ft | 446 kts | 208° |
| 2026-05-04 14:26 | 48.54607 | 2.43705 | 30966 ft | 458 kts | 207° |
| 2026-05-04 14:27 | 48.51688 | 2.41644 | 30961 ft | 469 kts | 199° |
| 2026-05-04 14:27 | 48.48532 | 2.40294 | 30951 ft | 475 kts | 190° |
| 2026-05-04 14:27 | 48.41887 | 2.39922 | 30941 ft | 481 kts | 177° |
| 2026-05-04 14:28 | 48.35195 | 2.40494 | 30948 ft | 482 kts | 177° |
| 2026-05-04 14:28 | 48.28518 | 2.41412 | 30952 ft | 484 kts | 169° |
| 2026-05-04 14:29 | 48.15751 | 2.47867 | 30952 ft | 486 kts | 162° |
| 2026-05-04 14:30 | 48.09377 | 2.51261 | 30955 ft | 486 kts | 162° |
| 2026-05-04 14:31 | 47.99798 | 2.56182 | 30953 ft | 485 kts | 163° |
| 2026-05-04 14:32 | 47.87041 | 2.62431 | 30957 ft | 484 kts | 163° |
| 2026-05-04 14:32 | 47.80671 | 2.65691 | 30945 ft | 485 kts | 160° |
| 2026-05-04 14:33 | 47.74405 | 2.69455 | 30949 ft | 486 kts | 160° |
| 2026-05-04 14:33 | 47.68181 | 2.73179 | 30946 ft | 485 kts | 160° |
| 2026-05-04 14:34 | 47.61913 | 2.76902 | 30945 ft | 485 kts | 160° |
| 2026-05-04 14:34 | 47.55645 | 2.80610 | 30936 ft | 485 kts | 160° |
| 2026-05-04 14:35 | 47.49382 | 2.84303 | 30939 ft | 485 kts | 160° |
| 2026-05-04 14:35 | 47.43116 | 2.87989 | 30941 ft | 485 kts | 160° |
| 2026-05-04 14:36 | 47.36889 | 2.91642 | 30929 ft | 485 kts | 160° |
| 2026-05-04 14:36 | 47.30614 | 2.95313 | 30939 ft | 486 kts | 160° |
| 2026-05-04 14:37 | 47.24327 | 2.98982 | 30939 ft | 486 kts | 160° |
| 2026-05-04 14:37 | 47.18033 | 3.02644 | 30937 ft | 486 kts | 160° |
| 2026-05-04 14:38 | 47.11787 | 3.06271 | 30937 ft | 486 kts | 160° |
| 2026-05-04 14:38 | 47.05499 | 3.09913 | 30945 ft | 486 kts | 161° |
| 2026-05-04 14:39 | 46.99210 | 3.13546 | 30945 ft | 486 kts | 161° |
| 2026-05-04 14:39 | 46.92919 | 3.17171 | 30942 ft | 486 kts | 161° |
| 2026-05-04 14:40 | 46.83482 | 3.22591 | 30939 ft | 486 kts | 161° |
| 2026-05-04 14:40 | 46.77229 | 3.26172 | 30938 ft | 487 kts | 161° |
| 2026-05-04 14:41 | 46.70912 | 3.29780 | 30940 ft | 488 kts | 161° |
| 2026-05-04 14:42 | 46.58268 | 3.36974 | 30936 ft | 488 kts | 161° |
| 2026-05-04 14:42 | 46.51938 | 3.40561 | 30935 ft | 489 kts | 161° |
| 2026-05-04 14:43 | 46.45645 | 3.44119 | 30937 ft | 489 kts | 161° |
| 2026-05-04 14:43 | 46.39309 | 3.47693 | 30939 ft | 488 kts | 161° |
| 2026-05-04 14:44 | 46.32974 | 3.51257 | 30938 ft | 488 kts | 161° |
| 2026-05-04 14:44 | 46.26635 | 3.54814 | 30939 ft | 489 kts | 161° |
| 2026-05-04 14:45 | 46.20334 | 3.58342 | 30943 ft | 489 kts | 161° |
| 2026-05-04 14:45 | 46.13987 | 3.61887 | 30946 ft | 489 kts | 161° |
| 2026-05-04 14:46 | 46.07636 | 3.65425 | 30940 ft | 490 kts | 161° |
| 2026-05-04 14:46 | 46.01262 | 3.68966 | 30944 ft | 491 kts | 161° |
| 2026-05-04 14:47 | 45.94931 | 3.72475 | 30945 ft | 491 kts | 161° |
| 2026-05-04 14:47 | 45.88556 | 3.76001 | 30940 ft | 492 kts | 161° |
| 2026-05-04 14:48 | 45.82172 | 3.79523 | 30947 ft | 492 kts | 161° |
| 2026-05-04 14:48 | 45.75777 | 3.83042 | 30949 ft | 492 kts | 161° |
| 2026-05-04 14:49 | 45.69387 | 3.86549 | 30943 ft | 493 kts | 161° |
| 2026-05-04 14:49 | 45.63024 | 3.90032 | 30942 ft | 493 kts | 161° |
| 2026-05-04 14:50 | 45.56620 | 3.93531 | 30940 ft | 493 kts | 162° |
| 2026-05-04 14:50 | 45.50211 | 3.97024 | 30936 ft | 493 kts | 162° |
| 2026-05-04 14:51 | 45.43809 | 4.00504 | 30939 ft | 493 kts | 162° |
| 2026-05-04 14:51 | 45.37449 | 4.03952 | 30941 ft | 493 kts | 162° |
| 2026-05-04 14:52 | 45.31043 | 4.07417 | 30921 ft | 492 kts | 162° |
| 2026-05-04 14:52 | 45.24636 | 4.10873 | 30918 ft | 493 kts | 162° |
| 2026-05-04 14:53 | 45.18220 | 4.14329 | 30916 ft | 493 kts | 161° |